Time;durP1;ratioP1;P1;durP2;ratioP2;P2;SDS_P1;SDS_P2;PMS_P1;PMS_P2;Temp;Humidity;BMP_temperature;BMP_pressure;BME280_temperature;BME280_humidity;BME280_pressure;Samples;Min_cycle;Max_cycle;Signal;HPM_P1;HPM_P2
2021/08/09 00:01:38;;;;;;;2.00;1.20;;;;;;;13.60;73.48;100461.50;5032939;28;20198;-67
2021/08/09 00:04:08;;;;;;;4.60;1.30;;;;;;;13.66;73.75;100471.75;5032261;28;20212;-66
2021/08/09 00:06:36;;;;;;;1.60;1.27;;;;;;;13.66;73.85;100471.75;5031640;28;20228;-68
2021/08/09 00:09:06;;;;;;;3.47;1.30;;;;;;;13.64;73.31;100484.53;5030233;28;20573;-67
2021/08/09 00:11:34;;;;;;;1.40;1.27;;;;;;;13.59;73.75;100479.53;5032750;28;20225;-67
2021/08/09 00:14:03;;;;;;;1.30;1.20;;;;;;;13.56;74.03;100481.63;5020789;28;20199;-67
2021/08/09 00:16:31;;;;;;;1.13;1.00;;;;;;;13.56;73.95;100478.94;5027116;28;20216;-67
2021/08/09 00:18:59;;;;;;;2.10;1.33;;;;;;;13.54;73.86;100472.81;5026025;28;20213;-68
2021/08/09 00:21:28;;;;;;;1.40;1.30;;;;;;;13.52;73.39;100477.50;5031963;28;20812;-66
2021/08/09 00:23:56;;;;;;;1.50;1.37;;;;;;;13.50;73.88;100480.31;5032499;28;20217;-67
2021/08/09 00:26:24;;;;;;;2.13;1.60;;;;;;;13.46;74.00;100481.53;5044370;28;20203;-67
2021/08/09 00:28:52;;;;;;;8.83;1.50;;;;;;;13.45;73.90;100481.66;5024791;28;20578;-68
2021/08/09 00:31:21;;;;;;;4.30;1.60;;;;;;;13.44;73.27;100490.75;5023544;28;20237;-67
2021/08/09 00:33:50;;;;;;;3.63;1.57;;;;;;;13.42;73.22;100482.78;5029718;28;20245;-66
2021/08/09 00:36:18;;;;;;;1.50;1.40;;;;;;;13.37;73.56;100490.41;5031117;28;20675;-67
2021/08/09 00:38:49;;;;;;;1.53;1.40;;;;;;;13.35;73.36;100493.22;5047111;28;20222;-66
2021/08/09 00:41:17;;;;;;;2.77;1.90;;;;;;;13.33;73.47;100489.81;5030784;28;20204;-66
2021/08/09 00:43:48;;;;;;;1.40;1.30;;;;;;;13.30;73.75;100490.06;5031187;28;20214;-67
2021/08/09 00:46:18;;;;;;;2.20;1.50;;;;;;;13.28;73.74;100489.34;5030781;28;20224;-67
2021/08/09 00:48:50;;;;;;;2.23;1.50;;;;;;;12.82;74.03;100410.50;5039752;28;20214;-67
2021/08/09 00:51:19;;;;;;;3.47;1.70;;;;;;;13.26;74.16;100483.22;5028821;28;20239;-67
2021/08/09 00:53:52;;;;;;;3.60;1.80;;;;;;;12.90;74.01;100421.53;5030461;28;20205;-66
2021/08/09 00:56:20;;;;;;;2.93;2.20;;;;;;;13.26;73.93;100491.31;5047291;28;20213;-66
2021/08/09 00:58:49;;;;;;;5.40;1.80;;;;;;;13.27;73.44;100493.03;5027028;28;20206;-67
2021/08/09 01:01:17;;;;;;;2.50;1.73;;;;;;;13.26;73.72;100491.31;5042199;28;20844;-66
2021/08/09 01:03:50;;;;;;;1.87;1.60;;;;;;;13.10;73.32;100463.00;5030684;28;20700;-67
2021/08/09 01:06:20;;;;;;;10.17;1.80;;;;;;;13.23;73.83;100494.25;5030462;28;20212;-66
2021/08/09 01:09:01;;;;;;;1.80;1.50;;;;;;;13.24;73.68;100495.97;5030184;28;20263;-67
2021/08/09 01:11:40;;;;;;;4.33;1.80;;;;;;;13.15;74.03;100482.34;5047066;28;20229;-67
2021/08/09 01:14:23;;;;;;;2.07;1.73;;;;;;;13.21;73.51;100496.22;5030535;28;20216;-67
2021/08/09 01:16:52;;;;;;;5.57;1.70;;;;;;;13.21;73.38;100498.06;5047612;28;20625;-67
2021/08/09 01:19:42;;;;;;;3.33;1.80;;;;;;;13.19;73.43;100502.75;5031530;28;20713;-67
2021/08/09 01:22:26;;;;;;;2.00;1.57;;;;;;;13.15;74.02;100507.47;5030386;28;20213;-66
2021/08/09 01:25:07;;;;;;;1.90;1.50;;;;;;;13.11;74.19;100511.41;5030532;28;20212;-67
2021/08/09 01:27:40;;;;;;;3.50;1.77;;;;;;;13.03;74.25;100508.47;5030508;28;20208;-66
2021/08/09 01:30:10;;;;;;;2.00;1.43;;;;;;;13.02;74.79;100512.16;5030173;28;20313;-66
2021/08/09 01:32:43;;;;;;;1.50;1.40;;;;;;;13.02;73.82;100509.47;5017575;28;20717;-66
2021/08/09 01:35:13;;;;;;;1.70;1.50;;;;;;;13.06;74.29;100513.63;5030166;28;20213;-66
2021/08/09 01:37:46;;;;;;;1.70;1.50;;;;;;;13.09;73.69;100518.75;5030055;28;20203;-66
2021/08/09 01:40:17;;;;;;;1.83;1.33;;;;;;;13.08;73.79;100508.97;5046771;28;20575;-67
2021/08/09 01:42:49;;;;;;;1.50;1.40;;;;;;;13.10;73.66;100516.94;5015999;28;20293;-67
2021/08/09 01:45:21;;;;;;;1.70;1.60;;;;;;;13.09;74.02;100521.47;5046520;28;20215;-67
2021/08/09 01:47:51;;;;;;;4.33;1.77;;;;;;;13.09;73.35;100523.28;5046690;28;20206;-67
2021/08/09 01:50:21;;;;;;;3.60;1.97;;;;;;;13.10;73.46;100525.00;5031273;28;20225;-68
2021/08/09 01:52:52;;;;;;;2.57;2.10;;;;;;;12.96;73.60;100501.88;5029991;28;20228;-67
2021/08/09 01:55:22;;;;;;;2.57;1.80;;;;;;;13.03;73.68;100514.72;5046538;28;20632;-67
2021/08/09 01:57:54;;;;;;;3.53;2.33;;;;;;;12.98;74.55;100524.19;5030049;28;20300;-66
2021/08/09 02:00:27;;;;;;;5.07;1.97;;;;;;;12.30;74.32;100414.78;5029967;28;20228;-67
2021/08/09 02:02:55;;;;;;;2.80;1.90;;;;;;;12.89;75.01;100524.94;5046521;28;20486;-67
2021/08/09 02:05:25;;;;;;;2.67;1.77;;;;;;;12.89;75.18;100524.94;5029682;28;20549;-67
2021/08/09 02:08:04;;;;;;;2.33;2.00;;;;;;;12.79;75.15;100505.94;5029858;28;20580;-67
2021/08/09 02:10:33;;;;;;;8.37;2.60;;;;;;;12.95;73.97;100524.44;5029638;28;20210;-67
2021/08/09 02:13:10;;;;;;;2.10;1.80;;;;;;;12.92;74.40;100513.91;5042632;28;20275;-67
2021/08/09 02:15:47;;;;;;;2.87;1.77;;;;;;;12.98;74.82;100527.75;5028965;28;20205;-68
2021/08/09 02:18:25;;;;;;;6.40;1.87;;;;;;;13.00;74.84;100530.31;5029490;28;20343;-67
2021/08/09 02:20:58;;;;;;;2.53;1.80;;;;;;;12.98;75.25;100529.56;5045705;28;20675;-67
2021/08/09 02:23:36;;;;;;;3.90;1.73;;;;;;;12.99;74.69;100528.59;5046026;28;20249;-67
2021/08/09 02:26:05;;;;;;;8.07;2.00;;;;;;;13.02;74.40;100529.19;5033236;28;20196;-67
2021/08/09 02:28:35;;;;;;;1.90;1.80;;;;;;;13.09;74.27;100526.84;5035846;28;20217;-68
2021/08/09 02:31:08;;;;;;;3.43;1.93;;;;;;;13.11;73.93;100522.19;5042508;28;20248;-68
2021/08/09 02:33:38;;;;;;;4.27;1.90;;;;;;;13.15;74.34;100528.19;5038891;28;20266;-67
2021/08/09 02:36:07;;;;;;;1.80;1.70;;;;;;;13.13;75.09;100520.22;5028771;28;20221;-68
2021/08/09 02:38:36;;;;;;;6.07;1.90;;;;;;;13.19;74.37;100532.41;5029323;28;20206;-67
2021/08/09 02:41:04;;;;;;;3.80;1.47;;;;;;;13.18;75.12;100523.47;5042078;28;20213;-67
2021/08/09 02:43:35;;;;;;;2.97;1.83;;;;;;;13.20;74.70;100526.03;5032872;28;20288;-68
2021/08/09 02:46:04;;;;;;;1.50;1.40;;;;;;;13.19;74.98;100522.47;5028810;28;20262;-67
2021/08/09 02:48:37;;;;;;;1.60;1.50;;;;;;;13.21;75.27;100522.34;5029088;28;20231;-67
2021/08/09 02:51:06;;;;;;;3.43;1.50;;;;;;;13.22;75.49;100532.16;5030370;28;20198;-67
2021/08/09 02:53:35;;;;;;;5.33;1.30;;;;;;;13.21;75.40;100528.59;5029992;28;20253;-67
2021/08/09 02:56:03;;;;;;;2.27;1.33;;;;;;;13.32;75.14;100536.66;5028599;28;20206;-67
2021/08/09 02:58:36;;;;;;;1.47;1.27;;;;;;;13.31;74.93;100534.94;5033207;28;20216;-67
2021/08/09 03:01:07;;;;;;;3.13;1.30;;;;;;;13.34;74.53;100534.69;5015047;28;20710;-67
2021/08/09 03:03:38;;;;;;;1.50;1.40;;;;;;;13.35;74.83;100531.00;5020529;28;20202;-67
2021/08/09 03:06:07;;;;;;;4.23;1.40;;;;;;;13.44;74.62;100547.38;5038801;28;20197;-67
2021/08/09 03:08:38;;;;;;;1.97;1.40;;;;;;;13.44;75.45;100550.09;5017762;28;20210;-67
2021/08/09 03:11:06;;;;;;;2.37;1.40;;;;;;;13.44;75.33;100552.78;5018503;28;20207;-67
2021/08/09 03:13:36;;;;;;;2.70;1.30;;;;;;;13.50;75.20;100545.06;5025804;28;20224;-67
2021/08/09 03:16:07;;;;;;;1.50;1.40;;;;;;;13.41;74.76;100528.75;5009751;28;20217;-67
2021/08/09 03:18:35;;;;;;;1.50;1.40;;;;;;;13.57;74.54;100551.66;5025081;28;20257;-67
2021/08/09 03:21:07;;;;;;;2.73;1.23;;;;;;;13.61;75.09;100546.84;5031654;28;20663;-67
2021/08/09 03:23:36;;;;;;;3.97;1.33;;;;;;;13.43;74.44;100516.00;5032502;28;20212;-67
2021/08/09 03:26:05;;;;;;;1.57;1.47;;;;;;;13.67;74.98;100551.75;5032053;28;20273;-67
2021/08/09 03:28:37;;;;;;;8.77;1.70;;;;;;;13.65;74.97;100538.38;5031174;28;20216;-67
2021/08/09 03:31:06;;;;;;;2.20;1.80;;;;;;;13.65;75.62;100543.78;5043424;28;20238;-67
2021/08/09 03:33:35;;;;;;;1.63;1.53;;;;;;;13.76;75.81;100550.94;5023428;28;20329;-67
2021/08/09 03:36:04;;;;;;;1.73;1.63;;;;;;;13.83;74.76;100552.19;5027886;28;20288;-67
2021/08/09 03:38:32;;;;;;;1.63;1.50;;;;;;;13.86;74.72;100546.50;5043827;28;20237;-68
2021/08/09 03:41:01;;;;;;;1.53;1.43;;;;;;;13.92;74.98;100556.78;5026835;28;20587;-67
2021/08/09 03:43:29;;;;;;;5.40;1.50;;;;;;;13.77;75.05;100522.97;5031213;28;20285;-67
2021/08/09 03:45:59;;;;;;;1.77;1.30;;;;;;;14.03;74.93;100557.72;5044838;28;20213;-68
2021/08/09 03:48:27;;;;;;;1.77;1.67;;;;;;;14.07;75.00;100553.75;5027842;28;20207;-67
2021/08/09 03:50:55;;;;;;;2.03;1.63;;;;;;;14.10;75.29;100553.53;5036660;28;20209;-67
2021/08/09 03:53:23;;;;;;;1.60;1.40;;;;;;;14.08;76.30;100559.06;5027740;28;20305;-67
2021/08/09 03:55:52;;;;;;;4.80;1.63;;;;;;;14.11;76.01;100555.22;5029411;28;20201;-68
2021/08/09 03:58:20;;;;;;;1.57;1.47;;;;;;;14.13;76.66;100553.25;5028864;28;20393;-67
2021/08/09 04:00:48;;;;;;;1.30;1.30;;;;;;;14.13;76.64;100551.41;5029501;28;20683;-67
2021/08/09 04:03:18;;;;;;;4.90;1.50;;;;;;;14.19;76.60;100553.56;5028764;28;20224;-67
2021/08/09 04:05:46;;;;;;;3.07;1.40;;;;;;;14.23;76.71;100562.28;5036689;28;20203;-67
2021/08/09 04:08:14;;;;;;;1.40;1.30;;;;;;;14.21;77.55;100556.16;5023211;28;20198;-67
2021/08/09 04:10:46;;;;;;;2.97;1.60;;;;;;;14.29;77.39;100564.44;5029186;28;20230;-67
2021/08/09 04:13:15;;;;;;;2.80;1.40;;;;;;;14.30;77.55;100571.56;5027495;28;20230;-66
2021/08/09 04:15:43;;;;;;;3.47;1.30;;;;;;;14.26;78.69;100570.09;5040993;28;20684;-66
2021/08/09 04:18:11;;;;;;;1.60;1.50;;;;;;;14.34;78.11;100567.59;5036245;28;20203;-66
2021/08/09 04:20:41;;;;;;;1.67;1.57;;;;;;;14.34;78.56;100573.00;5027556;28;20210;-66
2021/08/09 04:23:10;;;;;;;2.60;1.30;;;;;;;14.40;78.47;100574.34;5041252;28;20218;-67
2021/08/09 04:25:39;;;;;;;1.80;1.70;;;;;;;14.49;77.71;100577.13;5041310;28;20671;-67
2021/08/09 04:28:07;;;;;;;2.00;1.43;;;;;;;14.54;77.67;100574.88;5038276;28;20621;-68
2021/08/09 04:30:37;;;;;;;3.67;1.60;;;;;;;14.55;78.30;100573.88;5038153;28;20241;-67
2021/08/09 04:33:06;;;;;;;1.43;1.33;;;;;;;14.66;78.02;100582.88;5024502;28;20225;-67
2021/08/09 04:35:56;;;;;;;2.10;1.60;;;;;;;14.66;78.25;100586.44;5022901;28;20227;-67
2021/08/09 04:38:24;;;;;;;1.10;1.10;;;;;;;14.73;77.41;100584.09;5038369;28;20203;-67
2021/08/09 04:40:53;;;;;;;2.00;1.50;;;;;;;14.75;77.79;100587.50;5035595;28;20213;-67
2021/08/09 04:43:22;;;;;;;1.60;1.50;;;;;;;14.78;77.85;100584.53;5027836;28;20693;-67
2021/08/09 04:45:51;;;;;;;2.47;1.50;;;;;;;14.84;77.33;100586.69;5044663;28;20207;-67
2021/08/09 04:48:22;;;;;;;1.40;1.30;;;;;;;14.92;77.75;100594.97;5046340;28;20679;-67
2021/08/09 04:50:50;;;;;;;1.50;1.40;;;;;;;14.97;77.96;100592.72;5031140;28;20574;-67
2021/08/09 04:53:21;;;;;;;1.63;1.53;;;;;;;15.07;76.90;100600.88;5044067;28;20556;-67
2021/08/09 04:55:49;;;;;;;5.33;1.57;;;;;;;15.17;77.22;100599.06;5037513;28;20203;-67
2021/08/09 04:58:17;;;;;;;1.70;1.60;;;;;;;15.26;76.43;100598.22;5032228;28;20647;-67
2021/08/09 05:00:48;;;;;;;3.20;1.80;;;;;;;15.35;76.76;100601.97;5047780;28;20218;-67
2021/08/09 05:03:16;;;;;;;2.93;1.90;;;;;;;15.44;76.56;100611.97;5047419;28;20289;-67
2021/08/09 05:05:45;;;;;;;1.60;1.50;;;;;;;15.51;76.98;100607.72;5047683;28;20233;-67
2021/08/09 05:08:14;;;;;;;4.80;1.70;;;;;;;15.66;77.05;100622.59;5030723;28;20206;-67
2021/08/09 05:10:43;;;;;;;7.10;1.83;;;;;;;15.76;77.18;100617.19;5032107;28;20209;-68
2021/08/09 05:13:12;;;;;;;3.70;1.80;;;;;;;15.91;77.06;100620.34;5030320;28;20268;-67
2021/08/09 05:15:40;;;;;;;2.13;1.70;;;;;;;15.96;77.83;100615.38;5043835;28;20306;-68
2021/08/09 05:18:13;;;;;;;1.90;1.80;;;;;;;15.81;77.44;100587.84;5047500;28;20302;-67
2021/08/09 05:20:41;;;;;;;2.47;1.50;;;;;;;16.03;77.59;100620.06;5031714;28;20763;-67
2021/08/09 05:23:09;;;;;;;1.70;1.60;;;;;;;16.08;78.29;100622.34;5019612;28;20195;-67
2021/08/09 05:25:38;;;;;;;1.90;1.80;;;;;;;16.15;78.41;100618.94;5029454;28;20569;-66
2021/08/09 05:28:08;;;;;;;7.77;2.00;;;;;;;15.71;78.83;100525.56;5031775;28;20210;-68
2021/08/09 05:30:36;;;;;;;2.13;1.90;;;;;;;16.40;79.56;100628.34;5031644;28;20230;-67
2021/08/09 05:33:05;;;;;;;2.63;1.90;;;;;;;16.55;80.65;100620.63;5031552;28;20538;-67
2021/08/09 05:35:33;;;;;;;2.20;2.00;;;;;;;16.77;80.33;100630.28;5046981;28;20691;-67
2021/08/09 05:38:03;;;;;;;8.70;1.93;;;;;;;16.98;81.10;100625.53;5031892;28;20206;-67
2021/08/09 05:40:31;;;;;;;3.37;1.90;;;;;;;17.23;81.23;100631.28;5030401;28;20580;-67
2021/08/09 05:43:00;;;;;;;3.07;2.10;;;;;;;17.46;81.27;100627.19;5016429;28;20299;-68
2021/08/09 05:45:31;;;;;;;3.23;2.20;;;;;;;17.65;81.27;100632.47;5030387;28;20210;-68
2021/08/09 05:48:00;;;;;;;2.57;1.90;;;;;;;17.90;79.42;100633.66;5044818;28;20332;-67
2021/08/09 05:50:28;;;;;;;3.00;2.27;;;;;;;18.10;78.57;100637.09;5030127;28;20203;-67
2021/08/09 05:53:04;;;;;;;3.40;2.07;;;;;;;18.31;77.42;100639.47;5044409;28;20213;-67
2021/08/09 05:55:33;;;;;;;2.00;1.90;;;;;;;18.45;75.33;100640.78;5028892;28;20237;-67
2021/08/09 05:58:05;;;;;;;2.57;1.80;;;;;;;18.59;73.94;100638.34;5029610;28;20729;-67
2021/08/09 06:00:36;;;;;;;5.70;2.17;;;;;;;18.58;74.05;100628.47;5030136;28;20210;-67
2021/08/09 06:03:07;;;;;;;2.33;1.80;;;;;;;18.78;73.79;100641.91;5043075;28;20210;-67
2021/08/09 06:05:44;;;;;;;1.73;1.63;;;;;;;18.77;73.89;100641.06;5031486;28;20226;-67
2021/08/09 06:08:15;;;;;;;2.53;1.60;;;;;;;18.83;74.22;100654.03;5029447;28;20293;-67
2021/08/09 06:10:43;;;;;;;3.30;1.70;;;;;;;18.85;74.52;100651.16;5031039;28;20217;-67
2021/08/09 06:13:14;;;;;;;3.50;1.80;;;;;;;18.89;73.44;100658.84;5029554;28;20272;-67
2021/08/09 06:15:45;;;;;;;2.50;1.80;;;;;;;18.82;74.42;100665.06;5046145;28;20206;-67
2021/08/09 06:18:14;;;;;;;2.07;1.63;;;;;;;18.65;74.05;100636.03;5029547;28;20202;-67
2021/08/09 06:20:43;;;;;;;2.03;1.50;;;;;;;18.78;73.78;100664.53;5032065;28;20195;-67
2021/08/09 06:23:12;;;;;;;2.77;1.90;;;;;;;18.80;73.18;100667.09;5029218;28;20297;-67
2021/08/09 06:25:42;;;;;;;3.10;1.73;;;;;;;18.70;74.84;100672.66;5030908;28;20563;-67
2021/08/09 06:28:15;;;;;;;1.80;1.70;;;;;;;18.61;75.17;100670.81;5045847;28;20202;-67
2021/08/09 06:30:45;;;;;;;5.03;1.90;;;;;;;18.60;75.25;100669.97;5028980;28;20230;-67
2021/08/09 06:33:19;;;;;;;2.10;1.77;;;;;;;18.55;76.42;100682.34;5029370;28;20659;-67
2021/08/09 06:35:48;;;;;;;2.53;2.03;;;;;;;18.50;76.26;100684.69;5028950;28;20191;-67
2021/08/09 06:38:19;;;;;;;1.80;1.70;;;;;;;18.41;77.25;100682.91;5028865;28;20207;-68
2021/08/09 06:40:48;;;;;;;4.00;1.80;;;;;;;18.47;76.79;100679.56;5044406;28;20208;-67
2021/08/09 06:43:16;;;;;;;1.90;1.80;;;;;;;18.41;78.04;100682.91;5031289;28;20634;-68
2021/08/09 06:45:53;;;;;;;2.50;2.30;;;;;;;18.42;78.24;100662.88;5029079;28;20201;-67
2021/08/09 06:48:22;;;;;;;3.77;2.33;;;;;;;18.68;77.26;100673.81;5041784;28;20234;-67
2021/08/09 06:50:51;;;;;;;5.83;2.23;;;;;;;18.77;77.63;100676.44;5036638;28;20199;-67
2021/08/09 06:53:20;;;;;;;4.10;2.50;;;;;;;18.89;77.70;100677.03;5028513;28;20802;-67
2021/08/09 06:55:48;;;;;;;4.50;2.70;;;;;;;19.04;78.22;100677.31;5042057;28;20219;-67
2021/08/09 06:58:19;;;;;;;4.10;2.70;;;;;;;19.15;76.64;100677.88;5025043;28;20217;-67
2021/08/09 07:00:48;;;;;;;3.53;2.30;;;;;;;19.41;76.69;100682.47;5045518;28;20207;-67
2021/08/09 07:03:18;;;;;;;4.27;2.30;;;;;;;19.68;76.17;100686.88;5028385;28;20241;-67
2021/08/09 07:05:47;;;;;;;6.13;2.73;;;;;;;19.76;75.95;100665.94;5028798;28;20676;-67
2021/08/09 07:08:23;;;;;;;5.33;2.57;;;;;;;20.14;74.14;100675.41;5029605;28;20254;-67
2021/08/09 07:10:52;;;;;;;8.77;2.33;;;;;;;20.32;70.62;100682.63;5028579;28;20392;-67
2021/08/09 07:13:22;;;;;;;5.63;2.57;;;;;;;20.62;71.81;100697.50;5027904;28;20206;-67
2021/08/09 07:15:51;;;;;;;4.53;2.60;;;;;;;20.67;71.31;100698.69;5028464;28;20252;-67
2021/08/09 07:18:20;;;;;;;3.67;2.20;;;;;;;20.78;69.97;100712.00;5028053;28;20210;-67
2021/08/09 07:20:50;;;;;;;5.37;2.40;;;;;;;20.91;68.34;100699.72;5028644;28;20207;-68
2021/08/09 07:23:18;;;;;;;2.60;2.37;;;;;;;20.80;70.35;100716.44;5028122;28;20203;-68
2021/08/09 07:25:48;;;;;;;6.17;2.50;;;;;;;20.73;68.05;100711.66;5041528;28;20199;-68
2021/08/09 07:28:17;;;;;;;6.30;2.30;;;;;;;20.77;68.14;100718.47;5035999;28;20289;-68
2021/08/09 07:30:45;;;;;;;3.57;2.20;;;;;;;20.74;67.42;100715.25;5044599;28;20707;-68
2021/08/09 07:33:13;;;;;;;2.43;2.00;;;;;;;20.71;68.05;100719.16;5044597;28;20207;-67
2021/08/09 07:35:44;;;;;;;3.93;2.50;;;;;;;20.63;68.68;100723.78;5028090;28;20695;-67
2021/08/09 07:38:13;;;;;;;3.07;1.93;;;;;;;20.65;69.01;100728.03;5044814;28;20203;-67
2021/08/09 07:40:41;;;;;;;3.40;2.30;;;;;;;20.72;68.57;100723.59;5028105;28;20694;-67
2021/08/09 07:43:10;;;;;;;5.03;2.23;;;;;;;20.67;68.14;100714.22;5028043;28;20203;-67
2021/08/09 07:45:38;;;;;;;3.97;2.07;;;;;;;20.78;67.12;100725.63;5041864;28;20641;-67
2021/08/09 07:48:06;;;;;;;4.97;2.50;;;;;;;20.53;68.58;100690.34;5025870;28;20608;-67
2021/08/09 07:50:40;;;;;;;4.50;2.30;;;;;;;20.86;68.49;100730.28;5044726;28;20712;-67
2021/08/09 07:53:12;;;;;;;4.50;2.23;;;;;;;20.88;67.83;100720.03;5027584;28;20679;-68
2021/08/09 07:55:42;;;;;;;3.77;2.10;;;;;;;20.99;67.27;100724.28;5044609;28;20316;-67
2021/08/09 07:58:11;;;;;;;12.70;2.30;;;;;;;21.02;68.27;100724.78;5027794;28;20206;-67
2021/08/09 08:00:39;;;;;;;4.40;2.20;;;;;;;20.99;68.44;100724.28;5028072;28;20293;-68
2021/08/09 08:03:08;;;;;;;3.13;2.30;;;;;;;20.92;66.35;100679.59;5027747;28;20207;-68
2021/08/09 08:05:39;;;;;;;4.07;2.33;;;;;;;21.28;66.50;100730.06;5045009;28;20280;-67
2021/08/09 08:08:10;;;;;;;8.87;2.67;;;;;;;21.23;66.40;100717.94;5027418;28;20194;-69
2021/08/09 08:10:41;;;;;;;4.97;2.40;;;;;;;21.22;67.35;100713.50;5028978;28;20290;-69
2021/08/09 08:13:09;;;;;;;4.70;2.20;;;;;;;21.14;67.40;100722.56;5029041;28;20199;-67
2021/08/09 08:15:38;;;;;;;3.20;2.40;;;;;;;21.31;65.92;100724.25;5027372;28;20222;-68
2021/08/09 08:18:08;;;;;;;5.20;2.30;;;;;;;21.37;66.57;100729.03;5029149;28;20205;-68
2021/08/09 08:20:37;;;;;;;3.60;2.40;;;;;;;21.21;66.08;100690.78;5032900;28;20206;-67
2021/08/09 08:23:05;;;;;;;7.87;2.60;;;;;;;21.33;66.15;100673.03;5031589;28;20209;-68
2021/08/09 08:25:36;;;;;;;4.53;2.13;;;;;;;21.88;65.25;100729.53;5027760;28;20269;-68
2021/08/09 08:28:05;;;;;;;6.97;2.40;;;;;;;22.04;65.31;100719.56;5033008;28;20652;-68
2021/08/09 08:30:35;;;;;;;2.50;1.93;;;;;;;22.20;64.39;100720.34;5029269;28;20234;-68
2021/08/09 08:33:09;;;;;;;2.97;2.20;;;;;;;22.35;64.60;100723.19;5031413;28;20253;-68
2021/08/09 08:35:38;;;;;;;3.27;1.97;;;;;;;22.54;63.61;100711.75;5032370;28;20723;-67
2021/08/09 08:38:06;;;;;;;3.97;2.00;;;;;;;22.70;62.44;100713.53;5032783;28;20209;-68
2021/08/09 08:40:36;;;;;;;6.40;2.40;;;;;;;22.88;60.75;100707.72;5030712;28;20640;-67
2021/08/09 08:43:06;;;;;;;5.03;2.20;;;;;;;23.11;60.53;100715.91;5027731;28;20209;-67
2021/08/09 08:45:34;;;;;;;6.83;2.10;;;;;;;23.24;60.73;100718.84;5030452;28;20198;-68
2021/08/09 08:48:07;;;;;;;3.77;2.10;;;;;;;23.41;60.21;100714.91;5031659;28;20199;-68
2021/08/09 08:50:57;;;;;;;4.73;2.30;;;;;;;23.39;59.53;100711.50;5045956;28;20754;-68
2021/08/09 08:53:28;;;;;;;6.57;2.10;;;;;;;23.49;59.72;100713.97;5031998;28;20195;-68
2021/08/09 08:56:06;;;;;;;4.70;2.00;;;;;;;23.35;61.30;100714.81;5045346;28;20226;-68
2021/08/09 08:58:45;;;;;;;3.07;1.90;;;;;;;23.34;60.70;100680.22;5027143;28;20663;-68
2021/08/09 09:01:35;;;;;;;7.30;2.27;;;;;;;23.30;60.22;100637.78;5028049;28;20421;-68
2021/08/09 09:04:24;;;;;;;3.20;1.90;;;;;;;23.66;59.40;100714.66;5043306;28;20194;-69
2021/08/09 09:07:01;;;;;;;4.37;2.10;;;;;;;23.76;57.80;100707.84;5027382;28;20237;-68
2021/08/09 09:09:32;;;;;;;3.83;2.00;;;;;;;23.76;57.43;100712.47;5034747;28;20213;-68
2021/08/09 09:12:13;;;;;;;4.87;2.00;;;;;;;23.53;57.37;100718.88;5027823;28;20226;-68
2021/08/09 09:14:43;;;;;;;6.13;2.00;;;;;;;23.62;57.31;100724.31;5029675;28;20285;-67
2021/08/09 09:17:11;;;;;;;5.17;1.87;;;;;;;23.46;58.52;100728.91;5030500;28;20637;-68
2021/08/09 09:19:44;;;;;;;5.67;1.80;;;;;;;23.70;57.83;100736.03;5030829;28;20207;-67
2021/08/09 09:22:22;;;;;;;3.93;1.90;;;;;;;23.83;56.50;100724.38;5022997;28;20200;-68
2021/08/09 09:24:53;;;;;;;5.67;1.90;;;;;;;23.87;57.08;100733.94;5029000;28;20460;-68
2021/08/09 09:27:33;;;;;;;4.53;1.87;;;;;;;23.83;56.21;100729.88;5027358;28;20290;-67
2021/08/09 09:30:28;;;;;;;2.43;1.97;;;;;;;24.11;55.82;100727.28;5028037;28;20761;-68
2021/08/09 09:33:00;;;;;;;6.33;1.90;;;;;;;24.30;57.31;100726.69;5022789;28;20581;-68
2021/08/09 09:35:32;;;;;;;5.20;1.90;;;;;;;24.50;57.54;100729.69;5029082;28;20217;-67
2021/08/09 09:38:00;;;;;;;2.87;1.80;;;;;;;24.70;55.17;100724.38;5028325;28;20194;-68
2021/08/09 09:40:38;;;;;;;5.00;2.00;;;;;;;24.50;55.33;100676.66;5028282;28;20206;-68
2021/08/09 09:43:19;;;;;;;8.27;1.97;;;;;;;24.80;54.90;100732.28;5028053;28;20675;-68
2021/08/09 09:45:53;;;;;;;2.93;1.90;;;;;;;25.01;53.80;100727.66;5029246;28;20225;-67
2021/08/09 09:48:33;;;;;;;3.60;1.90;;;;;;;24.98;53.25;100732.66;5028469;28;20578;-67
2021/08/09 09:51:10;;;;;;;3.53;1.77;;;;;;;24.92;52.49;100738.97;5022889;28;20245;-67
2021/08/09 09:53:39;;;;;;;4.60;1.80;;;;;;;24.68;53.93;100735.56;5026575;28;20225;-68
2021/08/09 09:56:08;;;;;;;1.40;1.20;;;;;;;24.69;52.64;100739.16;5029231;28;20703;-68
2021/08/09 09:58:39;;;;;;;1.97;1.23;;;;;;;24.59;52.86;100734.00;5028014;28;20202;-67
2021/08/09 10:01:18;;;;;;;2.05;1.30;;;;;;;24.77;51.95;100750.00;5028397;28;20203;-66
2021/08/09 10:03:49;;;;;;;2.97;1.17;;;;;;;24.80;52.07;100748.75;5029861;28;20195;-68
2021/08/09 10:06:19;;;;;;;1.13;1.03;;;;;;;25.06;51.13;100744.38;5026507;28;20198;-67
2021/08/09 10:08:48;;;;;;;3.27;1.30;;;;;;;24.83;51.12;100745.66;5026002;28;20846;-67
2021/08/09 10:11:16;;;;;;;2.88;1.50;;;;;;;24.58;50.76;100729.53;5025924;28;20943;-68
2021/08/09 10:13:45;;;;;;;3.90;1.60;;;;;;;24.66;51.36;100756.88;5028424;28;20210;-66
2021/08/09 10:16:15;;;;;;;9.10;1.50;;;;;;;24.48;51.57;100747.38;5026066;28;20635;-68
2021/08/09 10:18:49;;;;;;;4.10;1.60;;;;;;;24.38;52.91;100762.28;5028591;28;20679;-68
2021/08/09 10:21:18;;;;;;;3.75;1.55;;;;;;;24.37;53.09;100759.72;5027152;28;20575;-69
2021/08/09 10:23:50;;;;;;;2.83;1.80;;;;;;;24.44;54.27;100766.97;5024710;28;20228;-67
2021/08/09 10:26:47;;;;;;;5.20;1.60;;;;;;;24.62;55.65;100765.72;5027850;28;20605;-68
2021/08/09 10:29:15;;;;;;;5.07;1.77;;;;;;;25.00;52.43;100760.81;5026011;28;20675;-69
2021/08/09 10:31:49;;;;;;;1.75;1.40;;;;;;;25.05;53.02;100759.19;5028496;28;20203;-67
2021/08/09 10:34:33;;;;;;;3.92;1.70;;;;;;;25.01;53.38;100757.03;5024746;28;20226;-68
2021/08/09 10:37:14;;;;;;;3.97;1.80;;;;;;;25.18;52.89;100768.63;5028126;28;20236;-67
2021/08/09 10:39:58;;;;;;;1.63;1.50;;;;;;;25.30;52.32;100762.34;5031607;28;20207;-67
2021/08/09 10:42:36;;;;;;;1.83;1.33;;;;;;;25.68;51.63;100765.63;5024551;28;20225;-67
2021/08/09 10:45:07;;;;;;;2.83;1.60;;;;;;;25.77;52.07;100760.81;5027358;28;20281;-67
2021/08/09 10:47:57;;;;;;;4.22;1.65;;;;;;;26.13;49.73;100752.31;5027911;28;20249;-68
2021/08/09 10:50:52;;;;;;;2.60;1.80;;;;;;;26.42;49.90;100758.59;5025659;28;20962;-67
2021/08/09 10:53:47;;;;;;;4.53;1.73;;;;;;;26.66;49.91;100760.78;5020283;28;20290;-67
2021/08/09 10:56:48;;;;;;;3.22;1.90;;;;;;;26.96;48.68;100757.66;5023930;28;20211;-68
2021/08/09 10:59:42;;;;;;;2.13;1.70;;;;;;;27.21;48.89;100762.34;5026314;28;20210;-68
2021/08/09 11:02:24;;;;;;;5.22;1.88;;;;;;;27.18;49.05;100764.69;5028014;28;20658;-68
2021/08/09 11:05:28;;;;;;;6.80;1.80;;;;;;;27.42;49.35;100774.22;5028001;28;20718;-68
2021/08/09 11:08:34;;;;;;;3.13;1.60;;;;;;;27.77;48.35;100766.56;5024684;28;20686;-67
2021/08/09 11:11:12;;;;;;;6.20;1.75;;;;;;;27.81;47.51;100762.28;5024469;28;20297;-68
2021/08/09 11:14:11;;;;;;;2.80;1.80;;;;;;;28.35;45.81;100770.19;5023475;28;20210;-67
2021/08/09 11:16:40;;;;;;;4.05;1.73;;;;;;;28.26;47.49;100777.06;5026702;28;20226;-68
2021/08/09 11:19:08;;;;;;;3.85;1.60;;;;;;;28.63;45.89;100767.06;5027758;28;20217;-67
2021/08/09 11:21:38;;;;;;;4.95;1.70;;;;;;;28.52;46.72;100767.78;5028760;28;20217;-68
2021/08/09 11:24:06;;;;;;;3.42;1.60;;;;;;;28.52;46.96;100773.31;5023734;28;20207;-67
2021/08/09 11:26:35;;;;;;;3.53;1.65;;;;;;;28.66;46.78;100779.59;5024616;28;20614;-67
2021/08/09 11:29:06;;;;;;;6.30;1.80;;;;;;;28.22;46.58;100734.31;5020380;28;20282;-68
2021/08/09 11:31:45;;;;;;;4.10;1.88;;;;;;;28.35;46.02;100752.78;5024278;28;20242;-67
2021/08/09 11:34:14;;;;;;;4.50;2.30;;;;;;;28.27;46.65;100769.63;5026297;28;20229;-67
2021/08/09 11:36:44;;;;;;;4.72;1.73;;;;;;;28.42;46.97;100767.41;5027903;28;20603;-67
2021/08/09 11:39:14;;;;;;;2.50;1.45;;;;;;;28.50;46.92;100767.16;5024053;28;20652;-67
2021/08/09 11:41:54;;;;;;;3.63;1.88;;;;;;;28.23;45.82;100755.34;5025014;28;20217;-67
2021/08/09 11:44:25;;;;;;;4.05;1.88;;;;;;;28.37;46.95;100758.94;5023138;28;20205;-67
2021/08/09 11:46:54;;;;;;;3.85;1.63;;;;;;;28.28;46.66;100763.03;5025514;28;20202;-67